Time;durP1;ratioP1;P1;durP2;ratioP2;P2;SDS_P1;SDS_P2;PMS_P1;PMS_P2;Temp;Humidity;BMP_temperature;BMP_pressure;BME280_temperature;BME280_humidity;BME280_pressure;Samples;Min_cycle;Max_cycle;Signal;HPM_P1;HPM_P2
2023/09/30 00:01:47;;;;;;;17.40;8.90;;;13.40;99.90;;;;;;5022797;28;20624;-64
2023/09/30 00:04:15;;;;;;;12.80;4.20;;;13.50;99.90;;;;;;5015663;28;20279;-64
2023/09/30 00:06:42;;;;;;;14.13;7.07;;;13.40;99.90;;;;;;5023380;28;20211;-65
2023/09/30 00:09:09;;;;;;;9.93;4.23;;;13.40;99.90;;;;;;5017767;28;20188;-64
2023/09/30 00:11:36;;;;;;;8.83;4.40;;;13.40;99.90;;;;;;5035686;28;20200;-64
2023/09/30 00:14:04;;;;;;;11.70;4.33;;;13.40;99.90;;;;;;5039208;28;20267;-65
2023/09/30 00:16:34;;;;;;;11.70;4.37;;;13.40;99.90;;;;;;5023558;28;20688;-66
2023/09/30 00:19:05;;;;;;;15.77;5.63;;;13.40;99.90;;;;;;5020773;28;20204;-65
2023/09/30 00:21:34;;;;;;;11.33;3.73;;;13.50;99.90;;;;;;5028234;28;20201;-65
2023/09/30 00:24:02;;;;;;;7.80;3.93;;;13.40;99.90;;;;;;5029223;28;20727;-65
2023/09/30 00:26:32;;;;;;;11.83;5.13;;;13.40;99.90;;;;;;5030103;28;20199;-64
2023/09/30 00:28:59;;;;;;;10.87;3.83;;;13.30;99.90;;;;;;5027577;28;20259;-64
2023/09/30 00:31:26;;;;;;;6.30;2.50;;;13.30;99.90;;;;;;5040388;28;20196;-64
2023/09/30 00:33:54;;;;;;;7.17;3.00;;;13.20;99.90;;;;;;5017425;28;20220;-65
2023/09/30 00:36:22;;;;;;;5.67;2.30;;;13.20;99.90;;;;;;5022981;28;20228;-66
2023/09/30 00:38:49;;;;;;;9.90;3.07;;;13.20;99.90;;;;;;5012011;28;20224;-68
2023/09/30 00:41:16;;;;;;;7.63;3.83;;;13.20;99.90;;;;;;5021528;28;20564;-69
2023/09/30 00:43:48;;;;;;;17.40;7.53;;;13.20;99.90;;;;;;5025276;28;20299;-66
2023/09/30 00:46:25;;;;;;;11.13;4.70;;;13.20;99.90;;;;;;5016425;28;20193;-65
2023/09/30 00:48:54;;;;;;;11.17;5.43;;;13.20;99.90;;;;;;5022586;28;20188;-65
2023/09/30 00:51:22;;;;;;;19.43;6.43;;;13.20;99.90;;;;;;5033402;28;20621;-65
2023/09/30 00:53:51;;;;;;;19.83;9.63;;;13.30;99.90;;;;;;5026964;28;20238;-68
2023/09/30 00:56:19;;;;;;;13.40;4.97;;;13.30;99.90;;;;;;5029474;28;20537;-65
2023/09/30 00:58:51;;;;;;;6.70;3.30;;;13.30;99.90;;;;;;5033590;28;20223;-65
2023/09/30 01:01:20;;;;;;;7.73;4.03;;;13.30;99.90;;;;;;5027681;28;20185;-65
2023/09/30 01:03:47;;;;;;;9.80;3.13;;;13.20;99.90;;;;;;5025154;28;20203;-65
2023/09/30 01:06:15;;;;;;;6.43;3.53;;;13.20;99.90;;;;;;5020966;28;20195;-69
2023/09/30 01:08:42;;;;;;;10.80;5.17;;;13.30;99.90;;;;;;5012253;28;20716;-67
2023/09/30 01:11:09;;;;;;;9.67;3.30;;;13.30;99.90;;;;;;5048391;28;20219;-67
2023/09/30 01:13:37;;;;;;;8.33;2.83;;;13.30;99.90;;;;;;5029954;28;20197;-66
2023/09/30 01:16:11;;;;;;;7.73;3.67;;;13.20;99.90;;;;;;5021047;28;20686;-66
2023/09/30 01:18:42;;;;;;;7.20;3.60;;;13.20;99.90;;;;;;5022469;28;20189;-65
2023/09/30 01:21:10;;;;;;;7.07;2.90;;;13.10;99.90;;;;;;5022809;28;20189;-65
2023/09/30 01:23:41;;;;;;;13.63;3.70;;;13.10;99.90;;;;;;5023882;28;20200;-66
2023/09/30 01:26:10;;;;;;;11.63;4.77;;;13.20;99.90;;;;;;5031756;28;20196;-65
2023/09/30 01:28:39;;;;;;;8.40;4.00;;;13.30;99.90;;;;;;5012746;28;20608;-66
2023/09/30 01:31:07;;;;;;;9.33;4.30;;;13.30;99.90;;;;;;5024746;28;20185;-65
2023/09/30 01:33:35;;;;;;;10.70;4.33;;;13.40;99.90;;;;;;5037011;28;20603;-67
2023/09/30 01:36:03;;;;;;;8.90;3.97;;;13.30;99.90;;;;;;5031824;28;20192;-66
2023/09/30 01:38:30;;;;;;;11.50;4.50;;;13.30;99.90;;;;;;5026113;28;20236;-73
2023/09/30 01:40:58;;;;;;;13.10;4.53;;;13.30;99.90;;;;;;5041178;28;23760;-66
2023/09/30 01:43:28;;;;;;;9.30;3.83;;;13.30;99.90;;;;;;5035627;28;20200;-73
2023/09/30 01:45:55;;;;;;;8.67;3.60;;;13.30;99.90;;;;;;5028623;28;20660;-72
2023/09/30 01:48:23;;;;;;;7.87;3.27;;;13.40;99.90;;;;;;5043839;28;20200;-73
2023/09/30 01:50:51;;;;;;;15.90;4.43;;;13.40;99.90;;;;;;5045425;28;20555;-72
2023/09/30 01:53:18;;;;;;;10.43;4.07;;;13.50;99.90;;;;;;5048568;28;20226;-72
2023/09/30 01:55:45;;;;;;;13.77;5.13;;;13.40;99.90;;;;;;5014513;28;20573;-73
2023/09/30 01:58:12;;;;;;;8.10;3.97;;;13.40;99.90;;;;;;5031011;28;20675;-72
2023/09/30 02:04:40;;;;;;;7.03;3.00;;;13.60;99.90;;;;;;5020110;28;20798;-70
2023/09/30 02:07:09;;;;;;;5.43;3.17;;;13.50;99.90;;;;;;5038169;28;20204;-70
2023/09/30 02:09:37;;;;;;;9.47;4.00;;;13.50;99.90;;;;;;5020374;28;20208;-71
2023/09/30 02:12:04;;;;;;;17.57;4.70;;;13.50;99.90;;;;;;5020780;28;20219;-71
2023/09/30 02:14:32;;;;;;;9.30;3.80;;;13.50;99.90;;;;;;5027188;28;20207;-71
2023/09/30 02:16:59;;;;;;;10.63;3.47;;;13.50;99.90;;;;;;5026634;28;20200;-71
2023/09/30 02:19:27;;;;;;;10.83;3.33;;;13.50;99.90;;;;;;5031414;28;20576;-77
2023/09/30 02:21:59;;;;;;;8.73;2.87;;;13.60;99.90;;;;;;5028042;28;20205;-72
2023/09/30 02:24:26;;;;;;;5.63;3.67;;;13.70;99.90;;;;;;5024736;28;20196;-71
2023/09/30 02:26:56;;;;;;;12.50;3.53;;;13.80;99.90;;;;;;5031782;28;20664;-72
2023/09/30 02:29:23;;;;;;;12.10;4.30;;;13.90;99.90;;;;;;5038926;28;20727;-71
2023/09/30 02:31:50;;;;;;;16.20;4.03;;;13.80;99.90;;;;;;5035810;28;20269;-70
2023/09/30 02:34:17;;;;;;;8.97;4.27;;;13.70;99.90;;;;;;5039631;28;20287;-72
2023/09/30 02:36:45;;;;;;;12.23;4.63;;;13.70;99.90;;;;;;5044020;28;20204;-71
2023/09/30 02:39:12;;;;;;;8.67;4.37;;;13.70;99.90;;;;;;5046153;28;20305;-71
2023/09/30 02:41:39;;;;;;;9.53;3.87;;;13.60;99.90;;;;;;5026724;28;20668;-72
2023/09/30 02:44:06;;;;;;;13.53;4.87;;;13.50;99.90;;;;;;5026890;28;20343;-65
2023/09/30 02:46:33;;;;;;;7.40;3.70;;;13.40;99.90;;;;;;5028445;28;20218;-65
2023/09/30 02:49:03;;;;;;;8.80;5.10;;;13.40;99.90;;;;;;5038690;28;20184;-66
2023/09/30 02:51:31;;;;;;;13.23;5.50;;;13.30;99.90;;;;;;5024573;28;20322;-68
2023/09/30 02:53:58;;;;;;;9.07;3.83;;;13.30;99.90;;;;;;5033215;28;20192;-65
2023/09/30 02:56:28;;;;;;;11.73;3.87;;;13.30;99.90;;;;;;5033437;28;20202;-66
2023/09/30 02:58:55;;;;;;;10.80;4.33;;;13.30;99.90;;;;;;5028367;28;20196;-71
2023/09/30 03:01:22;;;;;;;6.93;3.87;;;13.30;99.90;;;;;;5031176;28;20192;-69
2023/09/30 03:03:49;;;;;;;7.53;4.10;;;13.20;99.90;;;;;;5019278;28;20295;-67
2023/09/30 03:06:19;;;;;;;15.93;4.80;;;13.20;99.90;;;;;;5013968;28;20189;-67
2023/09/30 03:08:46;;;;;;;10.47;3.63;;;13.30;99.90;;;;;;5025057;28;20678;-65
2023/09/30 03:11:13;;;;;;;12.20;3.57;;;13.20;99.90;;;;;;5040286;28;20202;-64
2023/09/30 03:13:42;;;;;;;7.33;3.50;;;13.20;99.90;;;;;;5034309;28;20193;-66
2023/09/30 03:16:09;;;;;;;10.53;3.83;;;13.10;99.90;;;;;;5030286;28;20201;-65
2023/09/30 03:18:36;;;;;;;8.00;3.17;;;13.10;99.90;;;;;;5040235;28;20192;-67
2023/09/30 03:21:14;;;;;;;10.53;3.40;;;13.00;99.90;;;;;;5011916;28;20231;-64
2023/09/30 03:23:42;;;;;;;9.37;4.00;;;12.90;99.90;;;;;;5045998;28;20672;-67
2023/09/30 03:26:10;;;;;;;10.80;3.73;;;12.90;99.90;;;;;;5032244;28;20286;-67
2023/09/30 03:28:38;;;;;;;14.53;5.63;;;12.80;99.90;;;;;;5037969;28;20200;-67
2023/09/30 03:31:05;;;;;;;6.80;3.30;;;12.80;99.90;;;;;;5037068;28;20223;-67
2023/09/30 03:33:33;;;;;;;12.50;3.93;;;12.70;99.90;;;;;;5027398;28;20347;-72
2023/09/30 03:36:03;;;;;;;7.50;3.70;;;12.70;99.90;;;;;;5025060;28;20193;-67
2023/09/30 03:38:31;;;;;;;19.03;6.60;;;12.70;99.90;;;;;;5036677;28;20968;-67
2023/09/30 03:40:59;;;;;;;28.67;10.57;;;12.70;99.90;;;;;;5024645;28;20200;-67
2023/09/30 03:43:26;;;;;;;20.07;10.40;;;12.70;99.90;;;;;;5014804;28;20225;-71
2023/09/30 03:45:54;;;;;;;26.23;10.90;;;12.70;99.90;;;;;;5019479;28;20274;-66
2023/09/30 03:48:21;;;;;;;24.43;9.73;;;12.60;99.90;;;;;;5038806;28;20628;-67
2023/09/30 03:50:48;;;;;;;30.10;11.63;;;12.70;99.90;;;;;;5024181;28;20304;-70
2023/09/30 03:53:16;;;;;;;19.97;9.43;;;12.70;99.90;;;;;;5016931;28;20841;-70
2023/09/30 03:55:42;;;;;;;50.10;21.93;;;12.70;99.90;;;;;;5025585;28;20196;-71
2023/09/30 03:58:09;;;;;;;21.47;9.93;;;12.70;99.90;;;;;;5020794;28;20283;-74
2023/09/30 04:00:36;;;;;;;20.30;11.30;;;12.60;99.90;;;;;;5021526;28;20695;-72
2023/09/30 04:03:03;;;;;;;21.70;8.17;;;12.60;99.90;;;;;;5023368;28;20547;-66
2023/09/30 04:05:36;;;;;;;21.93;5.60;;;12.60;99.90;;;;;;5019375;28;20720;-67
2023/09/30 04:08:04;;;;;;;15.67;5.43;;;12.50;99.90;;;;;;5028642;28;20568;-66
2023/09/30 04:10:31;;;;;;;17.40;5.10;;;12.50;99.90;;;;;;5023635;28;20200;-67
2023/09/30 04:12:58;;;;;;;17.13;4.73;;;12.50;99.90;;;;;;5030033;28;20622;-64
2023/09/30 04:15:25;;;;;;;6.83;4.00;;;12.50;99.90;;;;;;5030167;28;20734;-64
2023/09/30 04:17:52;;;;;;;8.47;4.30;;;12.40;99.90;;;;;;5035622;28;20199;-65
2023/09/30 04:20:23;;;;;;;12.03;4.30;;;12.40;99.90;;;;;;5037002;28;20283;-64
2023/09/30 04:22:51;;;;;;;11.83;4.67;;;12.40;99.90;;;;;;5030823;28;20232;-69
2023/09/30 04:25:18;;;;;;;11.33;4.00;;;12.40;99.90;;;;;;5019126;28;20757;-64
2023/09/30 04:27:47;;;;;;;11.90;4.30;;;12.40;99.90;;;;;;5028112;28;20192;-65
2023/09/30 04:30:19;;;;;;;9.37;3.60;;;12.40;99.90;;;;;;5029968;28;20254;-65
2023/09/30 04:32:46;;;;;;;12.93;4.10;;;12.40;99.90;;;;;;5030099;28;20299;-65
2023/09/30 04:35:13;;;;;;;10.63;4.07;;;12.40;99.90;;;;;;5028507;28;20200;-67
2023/09/30 04:37:40;;;;;;;6.27;3.80;;;12.30;99.90;;;;;;5030184;28;20334;-65
2023/09/30 04:40:19;;;;;;;8.90;4.83;;;12.30;99.90;;;;;;5028903;28;20208;-67
2023/09/30 04:42:48;;;;;;;8.47;3.87;;;12.20;99.90;;;;;;5029058;28;20195;-68
2023/09/30 04:45:24;;;;;;;10.57;4.03;;;12.20;99.90;;;;;;5024388;28;20234;-64
2023/09/30 04:47:56;;;;;;;10.47;4.17;;;12.10;99.90;;;;;;5041629;28;20795;-64
2023/09/30 04:50:23;;;;;;;10.87;4.63;;;12.10;99.90;;;;;;5031270;28;20203;-64
2023/09/30 04:52:51;;;;;;;9.30;3.87;;;12.00;99.90;;;;;;5029436;28;20274;-67
2023/09/30 04:55:19;;;;;;;13.30;3.50;;;12.00;99.90;;;;;;5029658;28;20709;-65
2023/09/30 04:57:47;;;;;;;10.67;4.30;;;12.00;99.90;;;;;;5008227;28;20255;-66
2023/09/30 05:00:17;;;;;;;6.97;3.70;;;12.00;99.90;;;;;;5028705;28;20600;-64
2023/09/30 05:02:45;;;;;;;12.50;3.70;;;12.00;99.90;;;;;;5026986;28;20719;-65
2023/09/30 05:05:14;;;;;;;12.30;4.27;;;11.90;99.90;;;;;;5041136;28;20203;-64
2023/09/30 05:07:41;;;;;;;6.50;3.07;;;11.90;99.90;;;;;;5045329;28;20222;-65
2023/09/30 05:10:15;;;;;;;13.13;3.73;;;11.90;99.90;;;;;;5032811;28;20223;-64
2023/09/30 05:12:45;;;;;;;5.80;3.83;;;11.90;99.90;;;;;;5036755;28;20535;-66
2023/09/30 05:15:15;;;;;;;12.63;3.60;;;11.90;99.90;;;;;;5037584;28;20527;-77
2023/09/30 05:17:46;;;;;;;7.83;3.30;;;11.90;99.90;;;;;;5029133;28;20196;-72
2023/09/30 05:20:17;;;;;;;7.23;3.17;;;11.90;99.90;;;;;;5019730;28;20223;-75
2023/09/30 05:22:48;;;;;;;7.77;3.50;;;11.90;99.90;;;;;;5032538;28;20200;-71
2023/09/30 05:25:16;;;;;;;12.27;3.37;;;11.90;99.90;;;;;;5025110;28;20652;-72
2023/09/30 05:27:44;;;;;;;7.43;3.87;;;11.90;99.90;;;;;;5033381;28;20197;-72
2023/09/30 05:30:14;;;;;;;7.17;3.90;;;11.90;99.90;;;;;;5032355;28;20199;-74
2023/09/30 05:32:42;;;;;;;7.80;3.47;;;11.90;99.90;;;;;;5025784;28;20224;-72
2023/09/30 05:35:12;;;;;;;10.50;3.67;;;11.90;99.90;;;;;;5027403;28;20241;-73
2023/09/30 05:37:41;;;;;;;11.60;3.93;;;11.90;99.90;;;;;;5032986;28;20312;-68
2023/09/30 05:40:20;;;;;;;9.33;3.73;;;11.80;99.90;;;;;;5045511;28;20344;-68
2023/09/30 05:42:47;;;;;;;7.33;3.90;;;11.80;99.90;;;;;;5026219;28;20184;-69
2023/09/30 05:45:15;;;;;;;9.13;4.07;;;11.80;99.90;;;;;;5034702;28;20720;-70
2023/09/30 05:47:44;;;;;;;7.53;3.73;;;11.80;99.90;;;;;;5030923;28;20188;-69
2023/09/30 05:50:24;;;;;;;12.57;4.07;;;11.80;99.90;;;;;;5032789;28;20200;-70
2023/09/30 05:52:53;;;;;;;10.97;4.27;;;11.90;99.90;;;;;;5024844;28;20704;-71
2023/09/30 05:55:21;;;;;;;12.17;4.43;;;12.00;99.90;;;;;;5024551;28;20247;-71
2023/09/30 05:57:52;;;;;;;7.27;3.37;;;12.00;99.90;;;;;;5025047;28;20657;-71
2023/09/30 06:00:30;;;;;;;8.37;4.10;;;12.10;99.90;;;;;;5044842;28;20223;-72
2023/09/30 06:02:59;;;;;;;6.23;3.80;;;12.40;99.90;;;;;;5043385;28;20262;-72
2023/09/30 06:05:30;;;;;;;16.03;4.60;;;12.20;99.90;;;;;;5040211;28;20192;-72
2023/09/30 06:07:58;;;;;;;12.80;4.27;;;12.20;99.90;;;;;;5021853;28;20633;-73
2023/09/30 06:10:25;;;;;;;7.37;3.23;;;12.40;99.90;;;;;;5028851;28;20563;-72
2023/09/30 06:12:54;;;;;;;9.30;4.00;;;13.20;99.90;;;;;;5040480;28;20212;-73
2023/09/30 06:15:28;;;;;;;12.47;3.63;;;13.90;99.90;;;;;;5043571;28;20207;-75
2023/09/30 06:17:56;;;;;;;12.20;3.53;;;14.30;99.90;;;;;;5039897;28;20261;-72
2023/09/30 06:20:26;;;;;;;7.77;3.30;;;14.50;99.90;;;;;;5037752;28;20625;-73
2023/09/30 06:22:54;;;;;;;10.90;3.90;;;15.10;99.90;;;;;;5031484;28;20606;-64
2023/09/30 06:25:24;;;;;;;8.07;2.58;;;16.40;99.90;;;;;;5023900;28;20280;-69
2023/09/30 06:27:51;;;;;;;10.07;3.40;;;18.00;99.90;;;;;;5025931;28;20653;-73
2023/09/30 06:30:21;;;;;;;6.70;3.30;;;19.40;99.90;;;;;;5018272;28;20537;-75
2023/09/30 06:32:49;;;;;;;8.00;3.13;;;20.40;99.90;;;;;;5020501;28;20252;-75
2023/09/30 06:35:16;;;;;;;9.80;3.08;;;21.20;99.90;;;;;;5034087;28;20188;-65
2023/09/30 06:37:49;;;;;;;10.23;3.25;;;21.90;99.90;;;;;;5029743;28;20309;-75
2023/09/30 06:40:17;;;;;;;11.13;3.80;;;22.40;99.90;;;;;;5022254;28;20208;-73
2023/09/30 06:42:44;;;;;;;7.03;3.13;;;22.90;99.90;;;;;;5040937;28;20189;-72
2023/09/30 06:45:12;;;;;;;9.40;3.53;;;23.40;99.90;;;;;;5040081;28;20208;-72
2023/09/30 06:47:41;;;;;;;6.88;3.30;;;23.40;99.90;;;;;;5023932;28;20212;-65
2023/09/30 06:50:16;;;;;;;9.32;3.58;;;23.40;99.90;;;;;;5014861;28;20737;-65
2023/09/30 06:52:49;;;;;;;8.70;3.13;;;23.50;99.90;;;;;;5004468;28;20619;-65
2023/09/30 06:55:17;;;;;;;9.18;3.75;;;24.00;99.90;;;;;;5002096;28;20627;-67
2023/09/30 06:57:44;;;;;;;12.73;3.72;;;22.40;99.90;;;;;;5000161;28;20900;-66
2023/09/30 07:00:13;;;;;;;14.40;4.40;;;22.50;99.90;;;;;;4998550;28;20906;-68
2023/09/30 07:02:41;;;;;;;9.05;3.42;;;21.80;99.90;;;;;;5018618;28;20181;-70
2023/09/30 07:05:12;;;;;;;6.43;3.10;;;21.50;99.90;;;;;;5001662;28;20196;-73
2023/09/30 07:07:42;;;;;;;7.20;3.47;;;22.80;99.90;;;;;;5004037;28;20276;-73
2023/09/30 07:10:14;;;;;;;8.00;3.38;;;25.00;99.90;;;;;;5009460;28;20712;-71
2023/09/30 07:12:41;;;;;;;6.88;2.97;;;23.90;99.90;;;;;;5013694;28;20660;-70
2023/09/30 07:15:09;;;;;;;7.43;3.10;;;24.20;99.90;;;;;;5019151;28;20185;-70
2023/09/30 07:17:37;;;;;;;7.25;3.20;;;26.00;99.90;;;;;;5017309;28;20650;-71
2023/09/30 07:20:05;;;;;;;6.53;3.13;;;25.90;99.90;;;;;;5013560;28;20196;-72
2023/09/30 07:22:33;;;;;;;9.70;3.13;;;25.30;99.90;;;;;;5035226;28;20208;-70
2023/09/30 07:25:18;;;;;;;6.20;2.97;;;25.10;99.90;;;;;;5022664;28;20431;-71
2023/09/30 07:27:46;;;;;;;5.07;2.58;;;27.80;99.90;;;;;;5025128;28;20196;-66
2023/09/30 07:30:14;;;;;;;8.88;3.13;;;30.20;99.90;;;;;;5017050;28;20298;-66
2023/09/30 07:32:43;;;;;;;8.82;3.45;;;28.40;99.90;;;;;;5033018;28;20723;-68
2023/09/30 07:35:15;;;;;;;5.18;2.70;;;28.40;99.90;;;;;;5021257;28;20189;-71
2023/09/30 07:37:43;;;;;;;7.57;3.20;;;28.40;99.90;;;;;;5027789;28;20311;-71
2023/09/30 07:40:11;;;;;;;5.65;2.83;;;26.90;99.90;;;;;;5018903;28;20205;-71
2023/09/30 07:42:38;;;;;;;8.88;3.20;;;28.40;99.90;;;;;;5027404;28;20351;-71
2023/09/30 07:45:06;;;;;;;13.18;3.55;;;29.50;99.90;;;;;;5025814;28;20285;-71
2023/09/30 07:47:33;;;;;;;7.47;2.88;;;29.80;99.90;;;;;;5016393;28;20278;-71
2023/09/30 07:50:09;;;;;;;8.07;3.03;;;30.60;99.90;;;;;;5018074;28;20208;-71
2023/09/30 07:52:39;;;;;;;7.38;3.20;;;30.10;99.90;;;;;;5024683;28;20264;-70
2023/09/30 07:55:08;;;;;;;6.97;3.13;;;32.10;99.90;;;;;;5025971;28;20557;-71
2023/09/30 07:57:36;;;;;;;5.32;2.92;;;32.40;99.90;;;;;;5025544;28;20625;-71
2023/09/30 08:00:08;;;;;;;6.82;3.45;;;29.70;99.90;;;;;;5026343;28;20615;-71
2023/09/30 08:02:36;;;;;;;6.85;2.92;;;29.60;99.90;;;;;;5027857;28;20866;-72
2023/09/30 08:05:05;;;;;;;5.05;3.38;;;25.80;99.90;;;;;;5036341;28;20652;-71
2023/09/30 08:07:33;;;;;;;9.23;3.53;;;23.90;99.90;;;;;;5027706;28;20279;-71
2023/09/30 08:10:04;;;;;;;6.07;3.13;;;23.20;99.90;;;;;;5035973;28;20660;-72
2023/09/30 08:12:32;;;;;;;11.05;3.75;;;21.90;99.90;;;;;;5025387;28;20196;-70
2023/09/30 08:14:59;;;;;;;7.53;3.30;;;21.00;99.90;;;;;;5022161;28;20303;-72
2023/09/30 08:17:26;;;;;;;5.93;3.13;;;21.20;99.90;;;;;;5025443;28;20204;-71
2023/09/30 08:19:53;;;;;;;7.10;2.83;;;20.10;99.90;;;;;;5027440;28;20699;-71
2023/09/30 08:22:21;;;;;;;8.02;3.42;;;20.60;99.90;;;;;;5027394;28;20216;-68
2023/09/30 08:24:48;;;;;;;7.63;3.33;;;20.90;99.90;;;;;;5022361;28;20589;-74
2023/09/30 08:27:15;;;;;;;5.20;2.78;;;21.00;99.90;;;;;;5031351;28;20211;-69
2023/09/30 08:29:42;;;;;;;13.07;3.72;;;21.10;99.90;;;;;;5036045;28;20828;-69
2023/09/30 08:32:10;;;;;;;6.53;3.25;;;20.70;99.90;;;;;;5042496;28;20224;-69
2023/09/30 08:34:37;;;;;;;6.28;2.92;;;20.60;99.90;;;;;;5042853;28;20231;-64
2023/09/30 08:37:04;;;;;;;5.57;2.83;;;21.00;99.90;;;;;;5026730;28;20196;-64
2023/09/30 08:39:31;;;;;;;7.70;2.40;;;20.90;99.90;;;;;;5043883;28;20318;-66
2023/09/30 08:42:01;;;;;;;6.18;3.05;;;20.80;99.90;;;;;;5026119;28;20246;-65
2023/09/30 08:44:29;;;;;;;3.60;2.63;;;21.80;99.90;;;;;;5027888;28;20196;-66
2023/09/30 08:46:57;;;;;;;10.35;3.50;;;27.20;99.90;;;;;;5027470;28;20461;-65
2023/09/30 08:49:26;;;;;;;5.07;3.10;;;31.40;99.90;;;;;;5019043;28;20200;-65
2023/09/30 08:51:57;;;;;;;13.00;4.40;;;29.90;99.90;;;;;;5028104;28;20188;-65
2023/09/30 08:54:25;;;;;;;4.55;2.90;;;30.80;99.90;;;;;;5021946;28;20218;-66
2023/09/30 08:56:52;;;;;;;6.80;3.33;;;31.20;99.90;;;;;;5009337;28;20258;-66
2023/09/30 08:59:19;;;;;;;7.90;3.45;;;31.60;99.90;;;;;;5018922;28;20598;-66
2023/09/30 09:01:46;;;;;;;7.78;3.72;;;33.50;99.90;;;;;;5025854;28;20223;-66
2023/09/30 09:04:14;;;;;;;7.75;3.60;;;34.20;99.90;;;;;;5026014;28;20199;-66
2023/09/30 09:06:41;;;;;;;4.78;3.20;;;33.80;99.90;;;;;;5024749;28;20686;-66
2023/09/30 09:09:16;;;;;;;6.32;3.10;;;33.70;99.90;;;;;;5024544;28;20197;-66
2023/09/30 09:11:44;;;;;;;5.90;3.50;;;33.00;99.90;;;;;;5026665;28;20206;-65
2023/09/30 09:14:11;;;;;;;7.15;3.20;;;32.40;99.90;;;;;;5022147;28;20211;-67
2023/09/30 09:16:52;;;;;;;5.05;3.00;;;34.20;99.90;;;;;;5016066;28;20200;-66
2023/09/30 09:19:21;;;;;;;8.88;3.28;;;34.70;99.90;;;;;;5026480;28;20556;-66
2023/09/30 09:21:56;;;;;;;4.82;3.03;;;32.60;99.90;;;;;;5016412;28;20204;-66
2023/09/30 09:24:31;;;;;;;6.35;3.58;;;31.30;99.90;;;;;;5024388;28;20656;-66
2023/09/30 09:27:16;;;;;;;8.13;3.42;;;32.60;99.90;;;;;;5026816;28;20183;-66
2023/09/30 09:29:45;;;;;;;7.50;3.42;;;33.90;99.90;;;;;;5028827;28;20282;-66
2023/09/30 09:32:16;;;;;;;8.25;3.38;;;34.50;99.90;;;;;;5026950;28;20228;-66
2023/09/30 09:34:45;;;;;;;7.68;3.45;;;35.70;99.90;;;;;;5022011;28;20833;-67
2023/09/30 09:37:19;;;;;;;6.53;3.25;;;35.50;99.90;;;;;;5026212;28;20738;-66
2023/09/30 09:39:55;;;;;;;6.65;3.25;;;34.30;99.90;;;;;;5021848;28;20253;-65
2023/09/30 09:42:31;;;;;;;5.70;3.05;;;34.80;99.90;;;;;;5024940;28;20254;-65
2023/09/30 09:45:05;;;;;;;7.82;3.42;;;34.90;99.90;;;;;;5024333;28;20299;-69
2023/09/30 09:47:33;;;;;;;5.80;3.38;;;34.90;99.90;;;;;;5028224;28;20681;-68
2023/09/30 09:50:03;;;;;;;11.90;3.78;;;34.60;99.90;;;;;;5028913;28;20295;-69
2023/09/30 09:52:33;;;;;;;7.47;3.15;;;36.00;99.90;;;;;;5029770;28;20258;-69
2023/09/30 09:55:02;;;;;;;5.72;3.45;;;36.20;99.90;;;;;;5029679;28;20761;-71
2023/09/30 09:57:31;;;;;;;5.55;3.50;;;36.60;99.90;;;;;;5045110;28;20200;-69
2023/09/30 09:59:59;;;;;;;7.85;3.50;;;30.50;99.90;;;;;;5023772;28;20188;-69
2023/09/30 10:02:27;;;;;;;7.68;3.28;;;32.30;99.90;;;;;;5029758;28;20294;-68
2023/09/30 10:04:56;;;;;;;5.50;2.72;;;33.00;99.90;;;;;;5020461;28;20259;-69
2023/09/30 10:07:32;;;;;;;8.63;2.72;;;33.00;99.90;;;;;;5019120;28;20211;-69
2023/09/30 10:10:02;;;;;;;7.95;3.22;;;28.70;99.90;;;;;;5029319;28;20656;-69
2023/09/30 10:12:37;;;;;;;8.00;3.38;;;32.70;99.90;;;;;;5029564;28;20278;-69
2023/09/30 10:15:25;;;;;;;8.18;3.20;;;31.00;99.90;;;;;;5029608;28;20226;-69
2023/09/30 10:18:04;;;;;;;6.07;3.33;;;29.10;99.90;;;;;;5024827;28;20664;-69
2023/09/30 10:20:32;;;;;;;6.05;2.97;;;28.30;99.90;;;;;;5022239;28;20291;-71
2023/09/30 10:23:21;;;;;;;8.23;3.17;;;26.40;99.90;;;;;;5017130;28;20715;-69
2023/09/30 10:25:51;;;;;;;6.13;2.97;;;27.80;99.90;;;;;;5010702;28;20192;-68
2023/09/30 10:28:34;;;;;;;3.00;2.60;;;31.80;99.90;;;;;;5028845;28;20675;-69
2023/09/30 10:31:24;;;;;;;6.28;2.85;;;32.40;99.90;;;;;;5027885;28;20195;-69
2023/09/30 10:34:01;;;;;;;6.28;3.03;;;31.50;99.90;;;;;;5028762;28;20220;-69
2023/09/30 10:36:30;;;;;;;8.88;3.20;;;31.20;99.90;;;;;;5028133;28;20194;-69
2023/09/30 10:38:58;;;;;;;6.32;2.90;;;28.50;99.90;;;;;;5014195;28;20224;-69
2023/09/30 10:41:40;;;;;;;6.75;2.70;;;30.30;99.90;;;;;;5020514;28;20269;-69
2023/09/30 10:44:25;;;;;;;4.90;2.63;;;32.80;99.90;;;;;;5027685;28;20192;-69
2023/09/30 10:46:54;;;;;;;5.45;2.97;;;32.60;99.90;;;;;;5022956;28;20216;-69
2023/09/30 10:49:24;;;;;;;4.80;3.33;;;33.90;99.90;;;;;;5019727;28;20196;-69
2023/09/30 10:52:01;;;;;;;8.55;3.08;;;33.40;99.90;;;;;;5014556;28;20381;-70
2023/09/30 10:54:32;;;;;;;10.20;3.47;;;34.70;99.90;;;;;;5021034;28;20279;-69
2023/09/30 10:57:00;;;;;;;4.18;2.80;;;30.60;99.90;;;;;;5033888;28;20187;-69
2023/09/30 10:59:32;;;;;;;4.13;2.70;;;29.70;99.90;;;;;;5014119;28;20189;-69
2023/09/30 11:01:59;;;;;;;10.68;2.60;;;29.60;99.90;;;;;;5011774;28;20243;-69
2023/09/30 11:04:29;;;;;;;4.95;3.28;;;29.10;99.90;;;;;;5032951;28;20220;-67
2023/09/30 11:06:58;;;;;;;6.85;2.90;;;30.10;99.90;;;;;;5034239;28;20232;-66
2023/09/30 11:09:26;;;;;;;3.72;2.85;;;31.60;99.90;;;;;;5026726;28;20278;-66
2023/09/30 11:11:53;;;;;;;5.95;3.30;;;30.70;99.90;;;;;;5033573;28;20223;-66
2023/09/30 11:14:22;;;;;;;3.72;2.85;;;29.60;99.90;;;;;;5036036;28;20226;-66
2023/09/30 11:16:55;;;;;;;3.65;2.67;;;29.70;99.90;;;;;;5014387;28;20268;-65
2023/09/30 11:19:22;;;;;;;4.53;2.80;;;27.50;99.90;;;;;;5029301;28;20200;-66
2023/09/30 11:21:51;;;;;;;3.47;3.00;;;28.30;99.90;;;;;;5017539;28;20335;-65
2023/09/30 11:24:19;;;;;;;8.45;2.72;;;29.50;99.90;;;;;;5034239;28;20542;-66
2023/09/30 11:26:46;;;;;;;3.83;2.50;;;30.40;99.90;;;;;;5032113;28;20598;-66
2023/09/30 11:29:18;;;;;;;8.75;3.42;;;30.30;99.90;;;;;;5023506;28;20189;-66
2023/09/30 11:31:47;;;;;;;4.35;2.75;;;30.10;99.90;;;;;;5009364;28;20273;-66
2023/09/30 11:34:16;;;;;;;6.03;2.65;;;30.60;99.90;;;;;;5022298;28;20204;-65
2023/09/30 11:36:52;;;;;;;4.70;2.63;;;30.10;99.90;;;;;;5026522;28;20707;-66
2023/09/30 11:39:25;;;;;;;3.72;3.00;;;29.20;99.90;;;;;;5021241;28;20646;-66
2023/09/30 11:41:55;;;;;;;5.95;3.00;;;28.60;99.90;;;;;;5039187;28;20452;-65
2023/09/30 11:44:22;;;;;;;4.63;2.83;;;27.30;99.90;;;;;;5033337;28;20667;-66
2023/09/30 11:46:59;;;;;;;4.00;3.10;;;27.00;99.90;;;;;;5024024;28;20680;-65
2023/09/30 11:49:40;;;;;;;5.22;2.80;;;26.20;99.90;;;;;;5020529;28;20200;-65
2023/09/30 11:52:11;;;;;;;4.45;2.53;;;25.60;99.90;;;;;;5028034;28;20188;-65
2023/09/30 11:54:44;;;;;;;5.65;3.58;;;24.70;99.90;;;;;;5031380;28;20189;-65
2023/09/30 11:57:16;;;;;;;5.35;3.08;;;24.20;99.90;;;;;;5020852;28;20558;-66
2023/09/30 11:59:47;;;;;;;8.40;3.03;;;25.40;99.90;;;;;;5026697;28;20651;-65
2023/09/30 12:02:17;;;;;;;4.85;2.88;;;26.70;99.90;;;;;;5030252;28;20617;-66
2023/09/30 12:04:46;;;;;;;3.72;2.75;;;26.60;99.90;;;;;;5023073;28;20267;-66
2023/09/30 12:07:14;;;;;;;7.10;2.70;;;27.80;99.90;;;;;;5022203;28;20279;-66
2023/09/30 12:09:42;;;;;;;4.15;2.58;;;27.90;99.90;;;;;;5026833;28;20210;-66
2023/09/30 12:12:10;;;;;;;6.60;3.15;;;27.00;99.90;;;;;;5017955;28;20581;-65
2023/09/30 12:14:38;;;;;;;6.70;2.75;;;26.30;99.90;;;;;;5021573;28;20201;-69
2023/09/30 12:17:05;;;;;;;4.10;2.70;;;26.50;99.90;;;;;;5022967;28;20662;-69
2023/09/30 12:19:32;;;;;;;8.48;2.88;;;26.90;99.90;;;;;;5019788;28;20725;-69
2023/09/30 12:21:59;;;;;;;5.70;2.85;;;26.10;99.90;;;;;;5027414;28;20231;-69
2023/09/30 12:24:26;;;;;;;3.90;2.60;;;25.00;99.90;;;;;;5023018;28;20721;-69
2023/09/30 12:26:54;;;;;;;5.88;2.75;;;24.50;99.90;;;;;;5016693;28;20273;-69
2023/09/30 12:29:23;;;;;;;6.18;2.63;;;23.80;99.90;;;;;;5027371;28;20266;-69
2023/09/30 12:31:52;;;;;;;5.15;2.42;;;23.50;99.90;;;;;;5026130;28;20540;-71
2023/09/30 12:34:23;;;;;;;6.20;3.30;;;23.30;99.90;;;;;;5027045;28;20283;-69
2023/09/30 12:36:51;;;;;;;5.82;3.10;;;23.10;99.90;;;;;;5022295;28;20557;-69
2023/09/30 12:39:23;;;;;;;3.92;2.88;;;23.90;99.90;;;;;;5020247;28;20250;-68
2023/09/30 12:41:55;;;;;;;6.65;3.65;;;23.90;99.90;;;;;;5022038;28;20225;-69
2023/09/30 12:44:22;;;;;;;9.73;5.90;;;23.80;99.90;;;;;;5020754;28;20323;-69
2023/09/30 12:46:50;;;;;;;17.75;9.20;;;24.10;99.90;;;;;;5029343;28;20187;-68
2023/09/30 12:49:18;;;;;;;20.00;12.45;;;24.00;99.90;;;;;;5029229;28;20184;-69
2023/09/30 12:51:46;;;;;;;23.58;12.48;;;23.60;99.90;;;;;;5042386;28;20293;-69
2023/09/30 12:54:14;;;;;;;18.42;11.80;;;23.40;99.90;;;;;;5032349;28;20195;-69
2023/09/30 12:56:42;;;;;;;11.68;7.38;;;23.60;99.90;;;;;;5026704;28;20602;-69
2023/09/30 12:59:09;;;;;;;8.60;4.68;;;23.70;99.90;;;;;;5026508;28;20573;-68